sensor_id;sensor_type;location;lat;lon;timestamp;pressure;altitude;pressure_sealevel;temperature;humidity
8699;BME280;4386;51.236;6.742;2022-08-05T00:00:35;100900.81;;;22.43;73.48
8699;BME280;4386;51.236;6.742;2022-08-05T00:01:52;100897.88;;;22.38;73.14
8699;BME280;4386;51.236;6.742;2022-08-05T00:03:07;100901.41;;;22.38;73.36
8699;BME280;4386;51.236;6.742;2022-08-05T00:04:16;100899.72;;;22.37;73.42
8699;BME280;4386;51.236;6.742;2022-08-05T00:05:19;100898.88;;;22.37;73.29
8699;BME280;4386;51.236;6.742;2022-08-05T00:06:41;100904.28;;;22.37;73.42
8699;BME280;4386;51.236;6.742;2022-08-05T00:07:44;100900.56;;;22.38;73.23
8699;BME280;4386;51.236;6.742;2022-08-05T00:09:02;100896.00;;;22.38;73.30
8699;BME280;4386;51.236;6.742;2022-08-05T00:10:13;100902.22;;;22.39;73.50
8699;BME280;4386;51.236;6.742;2022-08-05T00:11:15;100897.66;;;22.39;73.47
8699;BME280;4386;51.236;6.742;2022-08-05T00:12:30;100907.00;;;22.37;73.08
8699;BME280;4386;51.236;6.742;2022-08-05T00:13:33;100905.97;;;22.38;73.25
8699;BME280;4386;51.236;6.742;2022-08-05T00:14:41;100905.97;;;22.38;73.43
8699;BME280;4386;51.236;6.742;2022-08-05T00:15:45;100915.09;;;22.37;73.42
8699;BME280;4386;51.236;6.742;2022-08-05T00:16:56;100916.78;;;22.38;73.30
8699;BME280;4386;51.236;6.742;2022-08-05T00:18:03;100921.13;;;22.39;73.37
8699;BME280;4386;51.236;6.742;2022-08-05T00:19:05;100908.69;;;22.38;73.58
8699;BME280;4386;51.236;6.742;2022-08-05T00:20:08;100908.69;;;22.38;73.57
8699;BME280;4386;51.236;6.742;2022-08-05T00:21:11;100905.97;;;22.38;73.45
8699;BME280;4386;51.236;6.742;2022-08-05T00:22:15;100915.94;;;22.37;73.72
8699;BME280;4386;51.236;6.742;2022-08-05T00:23:18;100915.72;;;22.39;74.00
8699;BME280;4386;51.236;6.742;2022-08-05T00:24:41;100905.97;;;22.38;74.01
8699;BME280;4386;51.236;6.742;2022-08-05T00:25:43;100906.38;;;22.35;74.03
8699;BME280;4386;51.236;6.742;2022-08-05T00:26:46;100912.78;;;22.33;73.71
8699;BME280;4386;51.236;6.742;2022-08-05T00:27:52;100904.03;;;22.31;74.08
8699;BME280;4386;51.236;6.742;2022-08-05T00:28:55;100909.63;;;22.30;74.14
8699;BME280;4386;51.236;6.742;2022-08-05T00:29:59;100912.50;;;22.28;74.35
8699;BME280;4386;51.236;6.742;2022-08-05T00:31:04;100917.09;;;22.28;74.15
8699;BME280;4386;51.236;6.742;2022-08-05T00:32:08;100919.13;;;22.26;74.49
8699;BME280;4386;51.236;6.742;2022-08-05T00:33:16;100914.94;;;22.23;74.16
8699;BME280;4386;51.236;6.742;2022-08-05T00:34:39;100912.00;;;22.18;74.65
8699;BME280;4386;51.236;6.742;2022-08-05T00:36:00;100916.94;;;22.15;74.54
8699;BME280;4386;51.236;6.742;2022-08-05T00:37:23;100904.63;;;22.12;74.46
8699;BME280;4386;51.236;6.742;2022-08-05T00:38:26;100904.63;;;22.12;74.54
8699;BME280;4386;51.236;6.742;2022-08-05T00:39:29;100896.34;;;22.14;75.01
8699;BME280;4386;51.236;6.742;2022-08-05T00:40:45;100903.63;;;22.13;74.85
8699;BME280;4386;51.236;6.742;2022-08-05T00:41:53;100905.69;;;22.11;74.67
8699;BME280;4386;51.236;6.742;2022-08-05T00:42:57;100892.34;;;22.10;74.94
8699;BME280;4386;51.236;6.742;2022-08-05T00:44:00;100890.50;;;22.10;75.18
8699;BME280;4386;51.236;6.742;2022-08-05T00:45:06;100891.50;;;22.09;74.82
8699;BME280;4386;51.236;6.742;2022-08-05T00:46:12;100887.53;;;22.05;74.96
8699;BME280;4386;51.236;6.742;2022-08-05T00:47:16;100896.84;;;22.03;75.53
8699;BME280;4386;51.236;6.742;2022-08-05T00:48:21;100888.94;;;22.01;75.34
8699;BME280;4386;51.236;6.742;2022-08-05T00:49:31;100891.81;;;22.00;75.33
8699;BME280;4386;51.236;6.742;2022-08-05T00:50:51;100894.06;;;21.96;75.21
8699;BME280;4386;51.236;6.742;2022-08-05T00:51:54;100899.47;;;21.96;75.49
8699;BME280;4386;51.236;6.742;2022-08-05T00:52:56;100900.50;;;21.95;75.70
8699;BME280;4386;51.236;6.742;2022-08-05T00:53:58;100902.16;;;21.96;75.51
8699;BME280;4386;51.236;6.742;2022-08-05T00:55:04;100908.41;;;21.97;75.65
8699;BME280;4386;51.236;6.742;2022-08-05T00:56:07;100914.81;;;21.96;75.61
8699;BME280;4386;51.236;6.742;2022-08-05T00:57:09;100910.47;;;21.95;75.57
8699;BME280;4386;51.236;6.742;2022-08-05T00:58:13;100909.63;;;21.94;75.42
8699;BME280;4386;51.236;6.742;2022-08-05T00:59:19;100908.78;;;21.94;75.82
8699;BME280;4386;51.236;6.742;2022-08-05T01:00:23;100907.09;;;21.93;75.57
8699;BME280;4386;51.236;6.742;2022-08-05T01:01:26;100907.94;;;21.93;75.59
8699;BME280;4386;51.236;6.742;2022-08-05T01:02:48;100907.09;;;21.93;75.63
8699;BME280;4386;51.236;6.742;2022-08-05T01:03:50;100909.63;;;21.94;75.89
8699;BME280;4386;51.236;6.742;2022-08-05T01:04:54;100912.94;;;21.96;75.69
8699;BME280;4386;51.236;6.742;2022-08-05T01:05:55;100910.09;;;21.98;76.01
8699;BME280;4386;51.236;6.742;2022-08-05T01:06:59;100909.25;;;21.97;75.82
8699;BME280;4386;51.236;6.742;2022-08-05T01:08:05;100909.25;;;21.97;76.02
8699;BME280;4386;51.236;6.742;2022-08-05T01:09:28;100913.78;;;21.97;75.61
8699;BME280;4386;51.236;6.742;2022-08-05T01:10:36;100920.03;;;21.97;75.89
8699;BME280;4386;51.236;6.742;2022-08-05T01:11:39;100909.25;;;21.97;76.28
8699;BME280;4386;51.236;6.742;2022-08-05T01:12:44;100903.84;;;21.97;76.02
8699;BME280;4386;51.236;6.742;2022-08-05T01:14:10;100902.44;;;22.01;76.02
8699;BME280;4386;51.236;6.742;2022-08-05T01:15:20;100896.84;;;22.03;76.13
8699;BME280;4386;51.236;6.742;2022-08-05T01:16:44;100901.03;;;22.05;76.25
8699;BME280;4386;51.236;6.742;2022-08-05T01:17:50;100905.41;;;22.06;76.09
8699;BME280;4386;51.236;6.742;2022-08-05T01:18:58;100897.31;;;22.06;76.06
8699;BME280;4386;51.236;6.742;2022-08-05T01:20:07;100907.06;;;22.07;76.22
8699;BME280;4386;51.236;6.742;2022-08-05T01:21:22;100906.06;;;22.08;76.34
8699;BME280;4386;51.236;6.742;2022-08-05T01:22:53;100905.84;;;22.10;76.00
8699;BME280;4386;51.236;6.742;2022-08-05T01:24:30;100913.78;;;22.11;76.11
8699;BME280;4386;51.236;6.742;2022-08-05T01:25:59;100909.22;;;22.12;76.14
8699;BME280;4386;51.236;6.742;2022-08-05T01:27:09;100904.00;;;22.10;75.96
8699;BME280;4386;51.236;6.742;2022-08-05T01:28:26;100905.84;;;22.10;76.19
8699;BME280;4386;51.236;6.742;2022-08-05T01:29:34;100896.91;;;22.09;76.21
8699;BME280;4386;51.236;6.742;2022-08-05T01:30:47;100890.69;;;22.09;76.05
8699;BME280;4386;51.236;6.742;2022-08-05T01:31:59;100890.88;;;22.07;76.13
8699;BME280;4386;51.236;6.742;2022-08-05T01:33:07;100892.56;;;22.08;76.47
8699;BME280;4386;51.236;6.742;2022-08-05T01:34:11;100896.91;;;22.09;76.32
8699;BME280;4386;51.236;6.742;2022-08-05T01:35:21;100902.13;;;22.11;76.64
8699;BME280;4386;51.236;6.742;2022-08-05T01:36:48;100916.47;;;22.11;76.65
8699;BME280;4386;51.236;6.742;2022-08-05T01:37:54;100916.47;;;22.11;76.52
8699;BME280;4386;51.236;6.742;2022-08-05T01:39:00;100923.53;;;22.12;76.67
8699;BME280;4386;51.236;6.742;2022-08-05T01:40:05;100930.63;;;22.13;76.65
8699;BME280;4386;51.236;6.742;2022-08-05T01:41:07;100919.81;;;22.13;76.73
8699;BME280;4386;51.236;6.742;2022-08-05T01:42:12;100921.50;;;22.14;76.52
8699;BME280;4386;51.236;6.742;2022-08-05T01:43:16;100923.16;;;22.15;76.74
8699;BME280;4386;51.236;6.742;2022-08-05T01:44:24;100923.81;;;22.17;76.36
8699;BME280;4386;51.236;6.742;2022-08-05T01:45:36;100930.91;;;22.18;76.75
8699;BME280;4386;51.236;6.742;2022-08-05T01:46:44;100935.25;;;22.19;76.58
8699;BME280;4386;51.236;6.742;2022-08-05T01:47:48;100934.25;;;22.20;76.94
8699;BME280;4386;51.236;6.742;2022-08-05T01:48:56;100947.34;;;22.23;76.56
8699;BME280;4386;51.236;6.742;2022-08-05T01:50:00;100949.03;;;22.24;76.49
8699;BME280;4386;51.236;6.742;2022-08-05T01:51:06;100950.69;;;22.25;76.76
8699;BME280;4386;51.236;6.742;2022-08-05T01:52:14;100954.22;;;22.26;76.45
8699;BME280;4386;51.236;6.742;2022-08-05T01:53:19;100965.03;;;22.26;76.36
8699;BME280;4386;51.236;6.742;2022-08-05T01:54:50;100977.31;;;22.28;76.34
8699;BME280;4386;51.236;6.742;2022-08-05T01:55:58;100981.69;;;22.29;76.31
8699;BME280;4386;51.236;6.742;2022-08-05T01:57:05;101001.44;;;22.30;76.17
8699;BME280;4386;51.236;6.742;2022-08-05T01:58:30;101004.31;;;22.28;76.27
8699;BME280;4386;51.236;6.742;2022-08-05T01:59:48;101027.63;;;22.29;76.40
8699;BME280;4386;51.236;6.742;2022-08-05T02:00:53;101033.22;;;22.28;76.49
8699;BME280;4386;51.236;6.742;2022-08-05T02:01:59;101033.03;;;22.29;76.23
8699;BME280;4386;51.236;6.742;2022-08-05T02:03:08;101049.22;;;22.29;76.46
8699;BME280;4386;51.236;6.742;2022-08-05T02:04:34;101041.31;;;22.28;76.19
8699;BME280;4386;51.236;6.742;2022-08-05T02:05:42;101038.81;;;22.26;76.23
8699;BME280;4386;51.236;6.742;2022-08-05T02:06:48;101037.78;;;22.27;76.20
8699;BME280;4386;51.236;6.742;2022-08-05T02:07:52;101038.81;;;22.26;76.57
8699;BME280;4386;51.236;6.742;2022-08-05T02:09:04;101039.66;;;22.27;76.21
8699;BME280;4386;51.236;6.742;2022-08-05T02:10:08;101043.34;;;22.26;76.72
8699;BME280;4386;51.236;6.742;2022-08-05T02:11:18;101043.56;;;22.24;76.46
8699;BME280;4386;51.236;6.742;2022-08-05T02:12:29;101042.91;;;22.22;76.14
8699;BME280;4386;51.236;6.742;2022-08-05T02:13:37;101040.41;;;22.21;76.38
8699;BME280;4386;51.236;6.742;2022-08-05T02:14:59;101042.44;;;22.19;76.46
8699;BME280;4386;51.236;6.742;2022-08-05T02:16:09;101046.34;;;22.16;76.44
8699;BME280;4386;51.236;6.742;2022-08-05T02:17:22;101037.78;;;22.13;76.66
8699;BME280;4386;51.236;6.742;2022-08-05T02:18:49;101029.41;;;22.08;76.55
8699;BME280;4386;51.236;6.742;2022-08-05T02:19:58;101021.88;;;22.03;76.54
8699;BME280;4386;51.236;6.742;2022-08-05T02:21:05;101018.91;;;21.98;76.75
8699;BME280;4386;51.236;6.742;2022-08-05T02:22:20;101011.59;;;21.84;77.42
8699;BME280;4386;51.236;6.742;2022-08-05T02:23:30;101016.31;;;21.67;77.94
8699;BME280;4386;51.236;6.742;2022-08-05T02:24:37;101020.03;;;21.52;78.07
8699;BME280;4386;51.236;6.742;2022-08-05T02:25:43;101009.19;;;21.37;78.67
8699;BME280;4386;51.236;6.742;2022-08-05T02:26:57;101008.28;;;21.30;79.41
8699;BME280;4386;51.236;6.742;2022-08-05T02:28:12;101012.50;;;21.24;79.60
8699;BME280;4386;51.236;6.742;2022-08-05T02:29:19;101012.59;;;21.16;80.32
8699;BME280;4386;51.236;6.742;2022-08-05T02:30:31;101017.69;;;21.11;80.04
8699;BME280;4386;51.236;6.742;2022-08-05T02:31:35;101028.16;;;21.06;80.87
8699;BME280;4386;51.236;6.742;2022-08-05T02:32:39;101033.91;;;21.03;80.86
8699;BME280;4386;51.236;6.742;2022-08-05T02:33:47;101043.00;;;21.02;81.27
8699;BME280;4386;51.236;6.742;2022-08-05T02:34:59;101057.47;;;21.01;81.45
8699;BME280;4386;51.236;6.742;2022-08-05T02:36:16;101053.78;;;21.02;81.35
8699;BME280;4386;51.236;6.742;2022-08-05T02:37:20;101052.09;;;21.01;81.46
8699;BME280;4386;51.236;6.742;2022-08-05T02:38:24;101042.81;;;21.04;81.65
8699;BME280;4386;51.236;6.742;2022-08-05T02:39:36;101038.94;;;21.06;81.64
8699;BME280;4386;51.236;6.742;2022-08-05T02:40:42;101042.63;;;21.05;81.99
8699;BME280;4386;51.236;6.742;2022-08-05T02:41:48;101056.13;;;21.05;82.14
8699;BME280;4386;51.236;6.742;2022-08-05T02:43:03;101050.06;;;21.03;81.71
8699;BME280;4386;51.236;6.742;2022-08-05T02:44:08;101052.78;;;21.03;82.07
8699;BME280;4386;51.236;6.742;2022-08-05T02:45:15;101055.47;;;21.03;81.99
8699;BME280;4386;51.236;6.742;2022-08-05T02:46:19;101055.81;;;21.00;82.17
8699;BME280;4386;51.236;6.742;2022-08-05T02:47:29;101054.13;;;20.99;82.30
8699;BME280;4386;51.236;6.742;2022-08-05T02:48:52;101045.53;;;21.04;82.38
8699;BME280;4386;51.236;6.742;2022-08-05T02:49:56;101031.50;;;21.08;82.54
8699;BME280;4386;51.236;6.742;2022-08-05T02:51:01;101023.75;;;21.13;82.82
8699;BME280;4386;51.236;6.742;2022-08-05T02:52:07;101021.69;;;21.15;82.42
8699;BME280;4386;51.236;6.742;2022-08-05T02:53:13;101021.34;;;21.18;82.98
8699;BME280;4386;51.236;6.742;2022-08-05T02:54:20;101031.75;;;21.21;82.98
8699;BME280;4386;51.236;6.742;2022-08-05T02:55:37;101028.06;;;21.22;82.88
8699;BME280;4386;51.236;6.742;2022-08-05T02:56:55;101016.91;;;21.25;83.07
8699;BME280;4386;51.236;6.742;2022-08-05T02:57:58;101011.13;;;21.28;83.07
8699;BME280;4386;51.236;6.742;2022-08-05T02:59:22;101007.06;;;21.33;82.83
8699;BME280;4386;51.236;6.742;2022-08-05T03:00:28;100985.50;;;21.33;82.77
8699;BME280;4386;51.236;6.742;2022-08-05T03:01:32;100961.22;;;21.33;83.21
8699;BME280;4386;51.236;6.742;2022-08-05T03:02:38;100938.97;;;21.30;83.19
8699;BME280;4386;51.236;6.742;2022-08-05T03:03:41;100931.25;;;21.27;83.36
8699;BME280;4386;51.236;6.742;2022-08-05T03:05:07;100910.72;;;21.26;82.97
8699;BME280;4386;51.236;6.742;2022-08-05T03:06:10;100910.06;;;21.24;83.29
8699;BME280;4386;51.236;6.742;2022-08-05T03:07:33;100890.34;;;21.24;83.26
8699;BME280;4386;51.236;6.742;2022-08-05T03:08:57;100887.00;;;21.22;83.06
8699;BME280;4386;51.236;6.742;2022-08-05T03:10:00;100900.66;;;21.20;83.33
8699;BME280;4386;51.236;6.742;2022-08-05T03:11:15;100886.53;;;21.18;83.57
8699;BME280;4386;51.236;6.742;2022-08-05T03:12:38;100882.81;;;21.19;83.37
8699;BME280;4386;51.236;6.742;2022-08-05T03:13:41;100882.00;;;21.19;83.77
8699;BME280;4386;51.236;6.742;2022-08-05T03:15:04;100874.91;;;21.18;83.82
8699;BME280;4386;51.236;6.742;2022-08-05T03:16:09;100874.06;;;21.17;83.84
8699;BME280;4386;51.236;6.742;2022-08-05T03:17:17;100878.81;;;21.15;83.74
8699;BME280;4386;51.236;6.742;2022-08-05T03:18:22;100879.00;;;21.14;83.74
8699;BME280;4386;51.236;6.742;2022-08-05T03:19:30;100879.84;;;21.14;83.96
8699;BME280;4386;51.236;6.742;2022-08-05T03:20:36;100878.19;;;21.13;84.34
8699;BME280;4386;51.236;6.742;2022-08-05T03:21:45;100897.06;;;21.13;83.95
8699;BME280;4386;51.236;6.742;2022-08-05T03:22:51;100895.16;;;21.14;84.04
8699;BME280;4386;51.236;6.742;2022-08-05T03:23:52;100898.69;;;21.14;84.35
8699;BME280;4386;51.236;6.742;2022-08-05T03:24:57;100902.25;;;21.15;84.19
8699;BME280;4386;51.236;6.742;2022-08-05T03:26:19;100901.69;;;21.19;84.56
8699;BME280;4386;51.236;6.742;2022-08-05T03:27:32;100900.66;;;21.20;83.92
8699;BME280;4386;51.236;6.742;2022-08-05T03:28:54;100894.44;;;21.20;84.26
8699;BME280;4386;51.236;6.742;2022-08-05T03:29:57;100903.34;;;21.20;84.13
8699;BME280;4386;51.236;6.742;2022-08-05T03:31:09;100908.75;;;21.20;84.17
8699;BME280;4386;51.236;6.742;2022-08-05T03:32:33;100921.88;;;21.23;83.97
8699;BME280;4386;51.236;6.742;2022-08-05T03:33:39;100932.31;;;21.26;84.10
8699;BME280;4386;51.236;6.742;2022-08-05T03:34:53;100952.66;;;21.29;84.13
8699;BME280;4386;51.236;6.742;2022-08-05T03:35:56;100961.38;;;21.31;83.97
8699;BME280;4386;51.236;6.742;2022-08-05T03:37:00;100970.16;;;21.33;84.49
8699;BME280;4386;51.236;6.742;2022-08-05T03:38:03;100975.19;;;21.36;84.27
8699;BME280;4386;51.236;6.742;2022-08-05T03:39:06;100975.19;;;21.36;84.01
8699;BME280;4386;51.236;6.742;2022-08-05T03:40:20;100986.63;;;21.38;83.96
8699;BME280;4386;51.236;6.742;2022-08-05T03:41:33;100990.16;;;21.39;84.22
8699;BME280;4386;51.236;6.742;2022-08-05T03:42:47;100995.34;;;21.40;83.83
8699;BME280;4386;51.236;6.742;2022-08-05T03:43:53;101005.31;;;21.40;83.55
8699;BME280;4386;51.236;6.742;2022-08-05T03:45:11;101016.75;;;21.42;83.49
8699;BME280;4386;51.236;6.742;2022-08-05T03:46:23;101019.44;;;21.42;83.81
8699;BME280;4386;51.236;6.742;2022-08-05T03:47:30;101012.38;;;21.41;83.47
8699;BME280;4386;51.236;6.742;2022-08-05T03:48:37;101024.00;;;21.41;83.66
8699;BME280;4386;51.236;6.742;2022-08-05T03:49:40;101016.75;;;21.42;83.56
8699;BME280;4386;51.236;6.742;2022-08-05T03:50:59;101021.13;;;21.43;83.96
8699;BME280;4386;51.236;6.742;2022-08-05T03:52:27;101015.53;;;21.44;83.52
8699;BME280;4386;51.236;6.742;2022-08-05T03:53:54;101012.84;;;21.44;83.79
8699;BME280;4386;51.236;6.742;2022-08-05T03:55:25;101012.69;;;21.46;83.64
8699;BME280;4386;51.236;6.742;2022-08-05T03:56:48;101012.69;;;21.46;83.63
8699;BME280;4386;51.236;6.742;2022-08-05T03:57:53;101012.69;;;21.46;83.95
8699;BME280;4386;51.236;6.742;2022-08-05T03:58:59;101006.25;;;21.47;83.76
8699;BME280;4386;51.236;6.742;2022-08-05T04:00:05;101014.53;;;21.45;83.62
8699;BME280;4386;51.236;6.742;2022-08-05T04:01:09;101006.59;;;21.44;83.50
8699;BME280;4386;51.236;6.742;2022-08-05T04:02:14;101003.09;;;21.43;83.88
8699;BME280;4386;51.236;6.742;2022-08-05T04:03:39;100995.19;;;21.42;83.64
8699;BME280;4386;51.236;6.742;2022-08-05T04:05:05;100995.19;;;21.42;83.39
8699;BME280;4386;51.236;6.742;2022-08-05T04:06:11;100999.72;;;21.41;83.34
8699;BME280;4386;51.236;6.742;2022-08-05T04:07:13;100987.25;;;21.40;83.39
8699;BME280;4386;51.236;6.742;2022-08-05T04:08:16;100986.44;;;21.40;83.17
8699;BME280;4386;51.236;6.742;2022-08-05T04:09:36;100979.38;;;21.39;83.58
8699;BME280;4386;51.236;6.742;2022-08-05T04:10:54;100969.59;;;21.38;83.41
8699;BME280;4386;51.236;6.742;2022-08-05T04:11:58;100976.84;;;21.37;83.26
8699;BME280;4386;51.236;6.742;2022-08-05T04:13:00;100967.94;;;21.37;83.72
8699;BME280;4386;51.236;6.742;2022-08-05T04:14:04;100965.25;;;21.37;83.62
8699;BME280;4386;51.236;6.742;2022-08-05T04:15:09;100960.84;;;21.36;83.42
8699;BME280;4386;51.236;6.742;2022-08-05T04:16:17;100963.34;;;21.37;83.54
8699;BME280;4386;51.236;6.742;2022-08-05T04:17:26;100956.09;;;21.38;83.54
8699;BME280;4386;51.236;6.742;2022-08-05T04:18:50;100952.56;;;21.37;83.45
8699;BME280;4386;51.236;6.742;2022-08-05T04:19:55;100964.41;;;21.36;83.13
8699;BME280;4386;51.236;6.742;2022-08-05T04:20:59;100956.47;;;21.35;83.02
8699;BME280;4386;51.236;6.742;2022-08-05T04:22:01;100952.75;;;21.36;83.40
8699;BME280;4386;51.236;6.742;2022-08-05T04:23:11;100946.53;;;21.35;83.17
8699;BME280;4386;51.236;6.742;2022-08-05T04:24:16;100935.75;;;21.35;83.39
8699;BME280;4386;51.236;6.742;2022-08-05T04:25:23;100930.72;;;21.32;83.15
8699;BME280;4386;51.236;6.742;2022-08-05T04:26:45;100921.78;;;21.32;83.26
8699;BME280;4386;51.236;6.742;2022-08-05T04:27:48;100915.75;;;21.29;83.13
8699;BME280;4386;51.236;6.742;2022-08-05T04:29:00;100904.13;;;21.29;83.19
8699;BME280;4386;51.236;6.742;2022-08-05T04:30:08;100914.06;;;21.28;83.55
8699;BME280;4386;51.236;6.742;2022-08-05T04:31:10;100924.84;;;21.28;83.42
8699;BME280;4386;51.236;6.742;2022-08-05T04:32:13;100955.16;;;21.30;83.69
8699;BME280;4386;51.236;6.742;2022-08-05T04:33:20;100965.94;;;21.30;83.68
8699;BME280;4386;51.236;6.742;2022-08-05T04:34:44;100977.41;;;21.33;83.40
8699;BME280;4386;51.236;6.742;2022-08-05T04:35:46;100972.19;;;21.31;83.42
8699;BME280;4386;51.236;6.742;2022-08-05T04:37:08;100965.56;;;21.34;83.06
8699;BME280;4386;51.236;6.742;2022-08-05T04:38:11;100955.63;;;21.34;83.35
8699;BME280;4386;51.236;6.742;2022-08-05T04:39:16;100952.75;;;21.36;83.54
8699;BME280;4386;51.236;6.742;2022-08-05T04:40:18;100959.84;;;21.37;83.16
8699;BME280;4386;51.236;6.742;2022-08-05T04:41:21;100960.66;;;21.37;83.19
8699;BME280;4386;51.236;6.742;2022-08-05T04:42:37;100965.88;;;21.39;82.90
8699;BME280;4386;51.236;6.742;2022-08-05T04:43:41;100970.25;;;21.40;83.41
8699;BME280;4386;51.236;6.742;2022-08-05T04:44:53;100952.19;;;21.40;82.94
8699;BME280;4386;51.236;6.742;2022-08-05T04:45:56;100955.72;;;21.41;83.25
8699;BME280;4386;51.236;6.742;2022-08-05T04:46:59;100954.06;;;21.40;83.31
8699;BME280;4386;51.236;6.742;2022-08-05T04:48:20;100964.88;;;21.40;83.03
8699;BME280;4386;51.236;6.742;2022-08-05T04:49:28;100968.56;;;21.39;82.86
8699;BME280;4386;51.236;6.742;2022-08-05T04:50:52;100969.22;;;21.41;82.77
8699;BME280;4386;51.236;6.742;2022-08-05T04:52:10;100960.75;;;21.44;83.19
8699;BME280;4386;51.236;6.742;2022-08-05T04:53:14;100958.06;;;21.44;83.22
8699;BME280;4386;51.236;6.742;2022-08-05T04:54:17;100948.31;;;21.43;83.20
8699;BME280;4386;51.236;6.742;2022-08-05T04:55:20;100956.19;;;21.44;82.75
8699;BME280;4386;51.236;6.742;2022-08-05T04:56:42;100965.78;;;21.47;82.82
8699;BME280;4386;51.236;6.742;2022-08-05T04:57:45;100964.13;;;21.46;83.18
8699;BME280;4386;51.236;6.742;2022-08-05T04:58:52;100978.63;;;21.45;83.16
8699;BME280;4386;51.236;6.742;2022-08-05T04:59:55;100978.63;;;21.45;83.10
8699;BME280;4386;51.236;6.742;2022-08-05T05:00:59;100976.78;;;21.45;83.22
8699;BME280;4386;51.236;6.742;2022-08-05T05:02:02;100984.66;;;21.47;83.18
8699;BME280;4386;51.236;6.742;2022-08-05T05:03:27;100969.53;;;21.46;82.69
8699;BME280;4386;51.236;6.742;2022-08-05T05:04:42;100976.56;;;21.47;83.14
8699;BME280;4386;51.236;6.742;2022-08-05T05:05:51;100976.56;;;21.47;82.90
8699;BME280;4386;51.236;6.742;2022-08-05T05:07:14;100965.97;;;21.45;82.82
8699;BME280;4386;51.236;6.742;2022-08-05T05:08:17;100963.44;;;21.44;82.71
8699;BME280;4386;51.236;6.742;2022-08-05T05:09:31;100967.84;;;21.45;82.79
8699;BME280;4386;51.236;6.742;2022-08-05T05:10:39;100961.44;;;21.46;83.18
8699;BME280;4386;51.236;6.742;2022-08-05T05:11:56;100960.22;;;21.48;82.79
8699;BME280;4386;51.236;6.742;2022-08-05T05:13:03;100958.34;;;21.49;82.97
8699;BME280;4386;51.236;6.742;2022-08-05T05:14:05;100958.34;;;21.49;83.02
8699;BME280;4386;51.236;6.742;2022-08-05T05:15:09;100965.44;;;21.50;83.16
8699;BME280;4386;51.236;6.742;2022-08-05T05:16:11;100977.88;;;21.51;82.77
8699;BME280;4386;51.236;6.742;2022-08-05T05:17:15;100974.53;;;21.49;82.70
8699;BME280;4386;51.236;6.742;2022-08-05T05:18:24;100969.53;;;21.46;82.68
8699;BME280;4386;51.236;6.742;2022-08-05T05:19:34;100976.94;;;21.44;82.68
8699;BME280;4386;51.236;6.742;2022-08-05T05:20:44;100970.72;;;21.43;82.64
8699;BME280;4386;51.236;6.742;2022-08-05T05:21:52;100975.28;;;21.43;82.82
8699;BME280;4386;51.236;6.742;2022-08-05T05:22:57;100966.16;;;21.44;82.69
8699;BME280;4386;51.236;6.742;2022-08-05T05:24:08;100970.38;;;21.46;83.15
8699;BME280;4386;51.236;6.742;2022-08-05T05:25:11;100966.63;;;21.47;82.56
8699;BME280;4386;51.236;6.742;2022-08-05T05:26:17;100968.47;;;21.47;82.71
8699;BME280;4386;51.236;6.742;2022-08-05T05:27:34;100978.47;;;21.46;82.54
8699;BME280;4386;51.236;6.742;2022-08-05T05:28:46;100967.66;;;21.46;82.53
8699;BME280;4386;51.236;6.742;2022-08-05T05:29:48;100971.19;;;21.47;82.53
8699;BME280;4386;51.236;6.742;2022-08-05T05:31:05;100973.53;;;21.50;82.24
8699;BME280;4386;51.236;6.742;2022-08-05T05:32:09;100975.84;;;21.53;82.30
8699;BME280;4386;51.236;6.742;2022-08-05T05:33:16;100980.41;;;21.52;82.12
8699;BME280;4386;51.236;6.742;2022-08-05T05:34:24;100979.56;;;21.52;82.14
8699;BME280;4386;51.236;6.742;2022-08-05T05:35:27;100988.50;;;21.52;82.35
8699;BME280;4386;51.236;6.742;2022-08-05T05:36:38;100982.91;;;21.54;82.41
8699;BME280;4386;51.236;6.742;2022-08-05T05:37:50;100990.00;;;21.55;82.62
8699;BME280;4386;51.236;6.742;2022-08-05T05:39:02;100983.59;;;21.56;82.42
8699;BME280;4386;51.236;6.742;2022-08-05T05:40:13;100981.91;;;21.55;82.29
8699;BME280;4386;51.236;6.742;2022-08-05T05:41:15;100995.38;;;21.55;82.36
8699;BME280;4386;51.236;6.742;2022-08-05T05:42:18;100994.38;;;21.56;82.34
8699;BME280;4386;51.236;6.742;2022-08-05T05:43:22;100993.31;;;21.57;82.54
8699;BME280;4386;51.236;6.742;2022-08-05T05:44:45;100989.63;;;21.58;82.53
8699;BME280;4386;51.236;6.742;2022-08-05T05:45:47;101001.06;;;21.60;82.20
8699;BME280;4386;51.236;6.742;2022-08-05T05:46:49;101006.28;;;21.61;82.59
8699;BME280;4386;51.236;6.742;2022-08-05T05:47:51;100997.16;;;21.62;82.53
8699;BME280;4386;51.236;6.742;2022-08-05T05:49:08;100999.66;;;21.64;82.12
8699;BME280;4386;51.236;6.742;2022-08-05T05:50:24;101008.44;;;21.66;81.81
8699;BME280;4386;51.236;6.742;2022-08-05T05:51:27;101012.16;;;21.65;81.72
8699;BME280;4386;51.236;6.742;2022-08-05T05:52:50;101000.50;;;21.64;82.09
8699;BME280;4386;51.236;6.742;2022-08-05T05:53:53;101013.16;;;21.64;81.71
8699;BME280;4386;51.236;6.742;2022-08-05T05:54:59;101006.06;;;21.63;81.70
8699;BME280;4386;51.236;6.742;2022-08-05T05:56:07;101010.47;;;21.64;81.69
8699;BME280;4386;51.236;6.742;2022-08-05T05:57:09;101019.56;;;21.63;81.63
8699;BME280;4386;51.236;6.742;2022-08-05T05:58:19;101012.50;;;21.62;81.81
8699;BME280;4386;51.236;6.742;2022-08-05T05:59:31;101017.25;;;21.60;81.54
8699;BME280;4386;51.236;6.742;2022-08-05T06:00:40;101019.94;;;21.60;81.30
8699;BME280;4386;51.236;6.742;2022-08-05T06:01:46;101023.69;;;21.59;81.39
8699;BME280;4386;51.236;6.742;2022-08-05T06:02:59;101013.91;;;21.58;81.38
8699;BME280;4386;51.236;6.742;2022-08-05T06:04:02;101012.03;;;21.58;81.74
8699;BME280;4386;51.236;6.742;2022-08-05T06:05:06;101010.19;;;21.59;81.43
8699;BME280;4386;51.236;6.742;2022-08-05T06:06:16;101017.59;;;21.57;81.61
8699;BME280;4386;51.236;6.742;2022-08-05T06:07:18;101020.50;;;21.55;81.54
8699;BME280;4386;51.236;6.742;2022-08-05T06:08:42;101019.03;;;21.53;81.40
8699;BME280;4386;51.236;6.742;2022-08-05T06:09:49;101017.34;;;21.52;81.11
8699;BME280;4386;51.236;6.742;2022-08-05T06:11:05;101013.16;;;21.49;81.39
8699;BME280;4386;51.236;6.742;2022-08-05T06:12:08;101012.31;;;21.49;81.36
8699;BME280;4386;51.236;6.742;2022-08-05T06:13:12;101013.31;;;21.48;81.13